sensor_id;sensor_type;location;lat;lon;timestamp;temperature;humidity
7900;DHT22;3995;50.856;4.404;2024-02-21T00:00:57;13.30;65.80
7900;DHT22;3995;50.856;4.404;2024-02-21T00:03:24;13.30;65.80
7900;DHT22;3995;50.856;4.404;2024-02-21T00:05:52;13.30;65.80
7900;DHT22;3995;50.856;4.404;2024-02-21T00:08:19;13.30;65.80
7900;DHT22;3995;50.856;4.404;2024-02-21T00:10:46;13.30;65.80
7900;DHT22;3995;50.856;4.404;2024-02-21T00:13:13;13.30;65.70
7900;DHT22;3995;50.856;4.404;2024-02-21T00:15:42;13.30;65.70
7900;DHT22;3995;50.856;4.404;2024-02-21T00:18:09;13.30;65.70
7900;DHT22;3995;50.856;4.404;2024-02-21T00:20:36;13.30;65.70
7900;DHT22;3995;50.856;4.404;2024-02-21T00:23:04;13.30;65.70
7900;DHT22;3995;50.856;4.404;2024-02-21T00:25:31;13.30;65.80
7900;DHT22;3995;50.856;4.404;2024-02-21T00:27:58;13.30;65.80
7900;DHT22;3995;50.856;4.404;2024-02-21T00:30:25;13.30;65.70
7900;DHT22;3995;50.856;4.404;2024-02-21T00:32:54;13.30;65.60
7900;DHT22;3995;50.856;4.404;2024-02-21T00:35:21;13.30;65.60
7900;DHT22;3995;50.856;4.404;2024-02-21T00:37:48;13.30;65.60
7900;DHT22;3995;50.856;4.404;2024-02-21T00:40:16;13.30;65.50
7900;DHT22;3995;50.856;4.404;2024-02-21T00:42:45;13.30;65.40
7900;DHT22;3995;50.856;4.404;2024-02-21T00:45:13;13.30;65.40
7900;DHT22;3995;50.856;4.404;2024-02-21T00:47:40;13.30;65.20
7900;DHT22;3995;50.856;4.404;2024-02-21T00:50:09;13.30;65.20
7900;DHT22;3995;50.856;4.404;2024-02-21T00:52:36;13.30;65.20
7900;DHT22;3995;50.856;4.404;2024-02-21T00:55:04;13.30;65.20
7900;DHT22;3995;50.856;4.404;2024-02-21T00:57:32;13.30;65.10
7900;DHT22;3995;50.856;4.404;2024-02-21T00:59:59;13.30;65.00
7900;DHT22;3995;50.856;4.404;2024-02-21T01:02:26;13.30;64.90
7900;DHT22;3995;50.856;4.404;2024-02-21T01:04:54;13.30;64.80
7900;DHT22;3995;50.856;4.404;2024-02-21T01:07:22;13.30;64.90
7900;DHT22;3995;50.856;4.404;2024-02-21T01:09:50;13.40;64.90
7900;DHT22;3995;50.856;4.404;2024-02-21T01:12:18;13.40;64.80
7900;DHT22;3995;50.856;4.404;2024-02-21T01:14:45;13.40;64.90
7900;DHT22;3995;50.856;4.404;2024-02-21T01:17:12;13.40;64.90
7900;DHT22;3995;50.856;4.404;2024-02-21T01:19:40;13.40;64.90
7900;DHT22;3995;50.856;4.404;2024-02-21T01:22:07;13.40;64.90
7900;DHT22;3995;50.856;4.404;2024-02-21T01:24:36;13.40;64.80
7900;DHT22;3995;50.856;4.404;2024-02-21T01:27:04;13.40;64.80
7900;DHT22;3995;50.856;4.404;2024-02-21T01:29:31;13.40;64.80
7900;DHT22;3995;50.856;4.404;2024-02-21T01:31:58;13.40;64.80
7900;DHT22;3995;50.856;4.404;2024-02-21T01:34:25;13.40;64.80
7900;DHT22;3995;50.856;4.404;2024-02-21T01:36:53;13.40;64.80
7900;DHT22;3995;50.856;4.404;2024-02-21T01:39:20;13.40;64.80
7900;DHT22;3995;50.856;4.404;2024-02-21T01:41:49;13.40;64.80
7900;DHT22;3995;50.856;4.404;2024-02-21T01:44:16;13.30;64.70
7900;DHT22;3995;50.856;4.404;2024-02-21T01:46:44;13.30;64.70
7900;DHT22;3995;50.856;4.404;2024-02-21T01:49:11;13.40;64.70
7900;DHT22;3995;50.856;4.404;2024-02-21T01:51:39;13.30;64.50
7900;DHT22;3995;50.856;4.404;2024-02-21T01:54:06;13.30;64.50
7900;DHT22;3995;50.856;4.404;2024-02-21T01:56:34;13.30;64.60
7900;DHT22;3995;50.856;4.404;2024-02-21T01:59:03;13.30;64.60
7900;DHT22;3995;50.856;4.404;2024-02-21T02:01:30;13.30;64.70
7900;DHT22;3995;50.856;4.404;2024-02-21T02:03:59;13.30;64.80
7900;DHT22;3995;50.856;4.404;2024-02-21T02:06:26;13.30;64.90
7900;DHT22;3995;50.856;4.404;2024-02-21T02:08:54;13.30;65.00
7900;DHT22;3995;50.856;4.404;2024-02-21T02:11:21;13.20;65.00
7900;DHT22;3995;50.856;4.404;2024-02-21T02:13:48;13.30;65.10
7900;DHT22;3995;50.856;4.404;2024-02-21T02:16:17;13.30;65.10
7900;DHT22;3995;50.856;4.404;2024-02-21T02:18:44;13.30;65.00
7900;DHT22;3995;50.856;4.404;2024-02-21T02:21:21;13.30;65.00
7900;DHT22;3995;50.856;4.404;2024-02-21T02:23:51;13.40;65.00
7900;DHT22;3995;50.856;4.404;2024-02-21T02:26:18;13.40;65.00
7900;DHT22;3995;50.856;4.404;2024-02-21T02:28:45;13.40;64.80
7900;DHT22;3995;50.856;4.404;2024-02-21T02:31:13;13.40;64.80
7900;DHT22;3995;50.856;4.404;2024-02-21T02:33:42;13.40;64.80
7900;DHT22;3995;50.856;4.404;2024-02-21T02:36:09;13.40;64.70
7900;DHT22;3995;50.856;4.404;2024-02-21T02:38:37;13.40;64.60
7900;DHT22;3995;50.856;4.404;2024-02-21T02:41:06;13.40;64.60
7900;DHT22;3995;50.856;4.404;2024-02-21T02:43:33;13.40;64.50
7900;DHT22;3995;50.856;4.404;2024-02-21T02:46:02;13.40;64.50
7900;DHT22;3995;50.856;4.404;2024-02-21T02:48:30;13.40;64.50
7900;DHT22;3995;50.856;4.404;2024-02-21T02:50:57;13.40;64.50
7900;DHT22;3995;50.856;4.404;2024-02-21T02:53:24;13.40;64.50
7900;DHT22;3995;50.856;4.404;2024-02-21T02:55:51;13.40;64.40
7900;DHT22;3995;50.856;4.404;2024-02-21T02:58:20;13.40;64.30
7900;DHT22;3995;50.856;4.404;2024-02-21T03:00:47;13.40;64.20
7900;DHT22;3995;50.856;4.404;2024-02-21T03:03:15;13.40;64.20
7900;DHT22;3995;50.856;4.404;2024-02-21T03:05:42;13.40;64.30
7900;DHT22;3995;50.856;4.404;2024-02-21T03:08:09;13.30;64.30
7900;DHT22;3995;50.856;4.404;2024-02-21T03:10:37;13.40;64.40
7900;DHT22;3995;50.856;4.404;2024-02-21T03:13:04;13.40;64.20
7900;DHT22;3995;50.856;4.404;2024-02-21T03:15:33;13.40;64.30
7900;DHT22;3995;50.856;4.404;2024-02-21T03:18:00;13.40;64.20
7900;DHT22;3995;50.856;4.404;2024-02-21T03:20:27;13.40;64.20
7900;DHT22;3995;50.856;4.404;2024-02-21T03:22:54;13.40;64.20
7900;DHT22;3995;50.856;4.404;2024-02-21T03:25:21;13.40;64.20
7900;DHT22;3995;50.856;4.404;2024-02-21T03:27:49;13.40;64.20
7900;DHT22;3995;50.856;4.404;2024-02-21T03:30:17;13.40;64.20
7900;DHT22;3995;50.856;4.404;2024-02-21T03:32:46;13.40;64.20
7900;DHT22;3995;50.856;4.404;2024-02-21T03:35:13;13.40;64.10
7900;DHT22;3995;50.856;4.404;2024-02-21T03:37:40;13.40;64.00
7900;DHT22;3995;50.856;4.404;2024-02-21T03:40:08;13.50;64.10
7900;DHT22;3995;50.856;4.404;2024-02-21T03:42:37;13.50;64.00
7900;DHT22;3995;50.856;4.404;2024-02-21T03:45:05;13.40;63.90
7900;DHT22;3995;50.856;4.404;2024-02-21T03:47:32;13.50;64.00
7900;DHT22;3995;50.856;4.404;2024-02-21T03:50:01;13.50;64.70
7900;DHT22;3995;50.856;4.404;2024-02-21T03:52:28;13.50;63.90
7900;DHT22;3995;50.856;4.404;2024-02-21T03:54:55;13.40;63.70
7900;DHT22;3995;50.856;4.404;2024-02-21T03:57:23;13.40;63.80
7900;DHT22;3995;50.856;4.404;2024-02-21T03:59:51;13.40;63.80
7900;DHT22;3995;50.856;4.404;2024-02-21T04:02:18;13.50;63.80
7900;DHT22;3995;50.856;4.404;2024-02-21T04:04:45;13.40;63.80
7900;DHT22;3995;50.856;4.404;2024-02-21T04:07:15;13.40;64.00
7900;DHT22;3995;50.856;4.404;2024-02-21T04:09:42;13.30;64.00
7900;DHT22;3995;50.856;4.404;2024-02-21T04:12:10;13.30;64.00
7900;DHT22;3995;50.856;4.404;2024-02-21T04:14:37;13.30;64.70
7900;DHT22;3995;50.856;4.404;2024-02-21T04:17:05;13.30;64.20
7900;DHT22;3995;50.856;4.404;2024-02-21T04:19:33;13.20;64.10
7900;DHT22;3995;50.856;4.404;2024-02-21T04:22:00;13.20;64.20
7900;DHT22;3995;50.856;4.404;2024-02-21T04:24:29;13.20;64.40
7900;DHT22;3995;50.856;4.404;2024-02-21T04:26:56;13.20;64.40
7900;DHT22;3995;50.856;4.404;2024-02-21T04:29:23;13.20;64.50
7900;DHT22;3995;50.856;4.404;2024-02-21T04:31:51;13.20;64.50
7900;DHT22;3995;50.856;4.404;2024-02-21T04:34:18;13.20;64.50
7900;DHT22;3995;50.856;4.404;2024-02-21T04:36:45;13.20;64.60
7900;DHT22;3995;50.856;4.404;2024-02-21T04:39:12;13.20;64.60
7900;DHT22;3995;50.856;4.404;2024-02-21T04:41:41;13.20;64.60
7900;DHT22;3995;50.856;4.404;2024-02-21T04:44:09;13.20;64.70
7900;DHT22;3995;50.856;4.404;2024-02-21T04:46:36;13.20;64.80
7900;DHT22;3995;50.856;4.404;2024-02-21T04:49:03;13.20;64.60
7900;DHT22;3995;50.856;4.404;2024-02-21T04:51:30;13.20;64.50
7900;DHT22;3995;50.856;4.404;2024-02-21T04:53:58;13.20;64.50
7900;DHT22;3995;50.856;4.404;2024-02-21T04:56:25;13.20;64.50
7900;DHT22;3995;50.856;4.404;2024-02-21T04:58:54;13.10;64.40
7900;DHT22;3995;50.856;4.404;2024-02-21T05:01:21;13.10;64.40
7900;DHT22;3995;50.856;4.404;2024-02-21T05:03:49;13.10;64.40
7900;DHT22;3995;50.856;4.404;2024-02-21T05:06:16;13.20;64.50
7900;DHT22;3995;50.856;4.404;2024-02-21T05:08:44;13.10;64.30
7900;DHT22;3995;50.856;4.404;2024-02-21T05:11:12;13.20;64.40
7900;DHT22;3995;50.856;4.404;2024-02-21T05:13:39;13.10;64.40
7900;DHT22;3995;50.856;4.404;2024-02-21T05:16:08;13.10;64.30
7900;DHT22;3995;50.856;4.404;2024-02-21T05:18:35;13.10;64.30
7900;DHT22;3995;50.856;4.404;2024-02-21T05:21:03;13.10;64.30
7900;DHT22;3995;50.856;4.404;2024-02-21T05:23:30;13.10;64.30
7900;DHT22;3995;50.856;4.404;2024-02-21T05:25:58;13.10;64.30
7900;DHT22;3995;50.856;4.404;2024-02-21T05:28:25;13.10;64.20
7900;DHT22;3995;50.856;4.404;2024-02-21T05:30:52;13.10;64.10
7900;DHT22;3995;50.856;4.404;2024-02-21T05:33:21;13.10;64.10
7900;DHT22;3995;50.856;4.404;2024-02-21T05:35:49;13.20;64.20
7900;DHT22;3995;50.856;4.404;2024-02-21T05:38:16;13.10;64.10
7900;DHT22;3995;50.856;4.404;2024-02-21T05:40:44;13.10;64.10
7900;DHT22;3995;50.856;4.404;2024-02-21T05:43:13;13.20;64.20
7900;DHT22;3995;50.856;4.404;2024-02-21T05:45:40;13.10;64.00
7900;DHT22;3995;50.856;4.404;2024-02-21T05:48:08;13.10;64.10
7900;DHT22;3995;50.856;4.404;2024-02-21T05:50:37;13.20;64.20
7900;DHT22;3995;50.856;4.404;2024-02-21T05:53:05;13.10;64.10
7900;DHT22;3995;50.856;4.404;2024-02-21T05:55:32;13.20;64.20
7900;DHT22;3995;50.856;4.404;2024-02-21T05:57:59;13.10;64.10
7900;DHT22;3995;50.856;4.404;2024-02-21T06:00:26;13.10;64.10
7900;DHT22;3995;50.856;4.404;2024-02-21T06:02:54;13.10;64.00
7900;DHT22;3995;50.856;4.404;2024-02-21T06:05:21;13.10;64.00
7900;DHT22;3995;50.856;4.404;2024-02-21T06:07:50;13.10;64.00
7900;DHT22;3995;50.856;4.404;2024-02-21T06:10:18;13.10;64.10
7900;DHT22;3995;50.856;4.404;2024-02-21T06:12:45;13.10;64.10
7900;DHT22;3995;50.856;4.404;2024-02-21T06:15:12;13.20;64.80
7900;DHT22;3995;50.856;4.404;2024-02-21T06:17:40;13.20;64.20
7900;DHT22;3995;50.856;4.404;2024-02-21T06:20:08;13.20;64.10
7900;DHT22;3995;50.856;4.404;2024-02-21T06:22:36;13.20;64.00
7900;DHT22;3995;50.856;4.404;2024-02-21T06:25:05;13.20;64.00
7900;DHT22;3995;50.856;4.404;2024-02-21T06:27:33;13.20;64.00
7900;DHT22;3995;50.856;4.404;2024-02-21T06:30:00;13.20;64.10
7900;DHT22;3995;50.856;4.404;2024-02-21T06:32:28;13.20;64.00
7900;DHT22;3995;50.856;4.404;2024-02-21T06:34:56;13.20;64.10
7900;DHT22;3995;50.856;4.404;2024-02-21T06:37:24;13.30;64.20
7900;DHT22;3995;50.856;4.404;2024-02-21T06:39:51;13.20;64.20
7900;DHT22;3995;50.856;4.404;2024-02-21T06:42:20;13.30;64.30
7900;DHT22;3995;50.856;4.404;2024-02-21T06:44:48;13.30;64.20
7900;DHT22;3995;50.856;4.404;2024-02-21T06:47:15;13.30;64.30
7900;DHT22;3995;50.856;4.404;2024-02-21T06:49:42;13.30;64.30
7900;DHT22;3995;50.856;4.404;2024-02-21T06:52:09;13.30;64.50
7900;DHT22;3995;50.856;4.404;2024-02-21T06:54:36;13.30;64.70
7900;DHT22;3995;50.856;4.404;2024-02-21T06:57:05;13.30;64.70
7900;DHT22;3995;50.856;4.404;2024-02-21T06:59:34;13.30;64.90
7900;DHT22;3995;50.856;4.404;2024-02-21T07:02:01;13.30;65.10
7900;DHT22;3995;50.856;4.404;2024-02-21T07:04:29;13.30;65.20
7900;DHT22;3995;50.856;4.404;2024-02-21T07:06:56;13.30;65.40
7900;DHT22;3995;50.856;4.404;2024-02-21T07:09:23;13.40;65.70
7900;DHT22;3995;50.856;4.404;2024-02-21T07:11:50;13.40;65.70
7900;DHT22;3995;50.856;4.404;2024-02-21T07:14:18;13.40;65.90
7900;DHT22;3995;50.856;4.404;2024-02-21T07:16:47;13.40;66.00
7900;DHT22;3995;50.856;4.404;2024-02-21T07:19:14;13.40;66.30
7900;DHT22;3995;50.856;4.404;2024-02-21T07:21:42;13.40;66.40
7900;DHT22;3995;50.856;4.404;2024-02-21T07:24:09;13.40;66.40
7900;DHT22;3995;50.856;4.404;2024-02-21T07:26:37;13.40;66.50
7900;DHT22;3995;50.856;4.404;2024-02-21T07:29:04;13.40;66.70
7900;DHT22;3995;50.856;4.404;2024-02-21T07:31:37;13.40;66.80
7900;DHT22;3995;50.856;4.404;2024-02-21T07:34:07;13.40;66.80
7900;DHT22;3995;50.856;4.404;2024-02-21T07:36:34;13.40;66.80
7900;DHT22;3995;50.856;4.404;2024-02-21T07:39:03;13.40;67.50
7900;DHT22;3995;50.856;4.404;2024-02-21T07:41:31;13.40;67.00
7900;DHT22;3995;50.856;4.404;2024-02-21T07:43:59;13.40;67.00
7900;DHT22;3995;50.856;4.404;2024-02-21T07:46:26;13.40;66.90
7900;DHT22;3995;50.856;4.404;2024-02-21T07:48:54;13.40;66.90
7900;DHT22;3995;50.856;4.404;2024-02-21T07:51:23;13.40;66.80
7900;DHT22;3995;50.856;4.404;2024-02-21T07:53:54;13.40;66.60
7900;DHT22;3995;50.856;4.404;2024-02-21T07:56:21;13.30;66.50
7900;DHT22;3995;50.856;4.404;2024-02-21T07:58:49;13.30;66.40
7900;DHT22;3995;50.856;4.404;2024-02-21T08:01:18;13.30;67.00
7900;DHT22;3995;50.856;4.404;2024-02-21T08:03:46;13.30;66.20
7900;DHT22;3995;50.856;4.404;2024-02-21T08:06:14;13.30;66.10
7900;DHT22;3995;50.856;4.404;2024-02-21T08:08:43;13.30;66.00
7900;DHT22;3995;50.856;4.404;2024-02-21T08:11:10;13.30;65.90
7900;DHT22;3995;50.856;4.404;2024-02-21T08:13:38;13.20;65.90
7900;DHT22;3995;50.856;4.404;2024-02-21T08:16:05;13.20;65.90
7900;DHT22;3995;50.856;4.404;2024-02-21T08:18:33;13.20;65.70
7900;DHT22;3995;50.856;4.404;2024-02-21T08:21:03;13.20;65.70
7900;DHT22;3995;50.856;4.404;2024-02-21T08:23:31;13.20;65.60
7900;DHT22;3995;50.856;4.404;2024-02-21T08:26:03;13.20;65.60
7900;DHT22;3995;50.856;4.404;2024-02-21T08:28:30;13.20;65.50
7900;DHT22;3995;50.856;4.404;2024-02-21T08:30:57;13.20;65.70
7900;DHT22;3995;50.856;4.404;2024-02-21T08:33:25;13.20;65.70
7900;DHT22;3995;50.856;4.404;2024-02-21T08:35:53;13.20;65.50
7900;DHT22;3995;50.856;4.404;2024-02-21T08:38:20;13.20;65.40
7900;DHT22;3995;50.856;4.404;2024-02-21T08:40:48;13.20;65.40
7900;DHT22;3995;50.856;4.404;2024-02-21T08:43:17;13.20;65.40
7900;DHT22;3995;50.856;4.404;2024-02-21T08:45:44;13.20;65.30
7900;DHT22;3995;50.856;4.404;2024-02-21T08:48:12;13.20;65.20
7900;DHT22;3995;50.856;4.404;2024-02-21T08:50:39;13.20;65.20
7900;DHT22;3995;50.856;4.404;2024-02-21T08:53:07;13.20;65.10
7900;DHT22;3995;50.856;4.404;2024-02-21T08:55:35;13.20;65.10
7900;DHT22;3995;50.856;4.404;2024-02-21T08:58:02;13.20;65.00
7900;DHT22;3995;50.856;4.404;2024-02-21T09:00:32;13.20;64.80
7900;DHT22;3995;50.856;4.404;2024-02-21T09:02:59;13.30;64.90
7900;DHT22;3995;50.856;4.404;2024-02-21T09:05:27;13.30;64.80
7900;DHT22;3995;50.856;4.404;2024-02-21T09:07:54;13.30;64.80
7900;DHT22;3995;50.856;4.404;2024-02-21T09:10:21;13.30;64.70
7900;DHT22;3995;50.856;4.404;2024-02-21T09:12:49;13.30;64.50
7900;DHT22;3995;50.856;4.404;2024-02-21T09:15:16;13.30;64.50
7900;DHT22;3995;50.856;4.404;2024-02-21T09:17:45;13.30;64.50
7900;DHT22;3995;50.856;4.404;2024-02-21T09:20:14;13.30;64.50
7900;DHT22;3995;50.856;4.404;2024-02-21T09:22:42;13.30;64.40
7900;DHT22;3995;50.856;4.404;2024-02-21T09:25:09;13.30;64.30
7900;DHT22;3995;50.856;4.404;2024-02-21T09:27:38;13.30;64.30
7900;DHT22;3995;50.856;4.404;2024-02-21T09:30:06;13.30;64.20
7900;DHT22;3995;50.856;4.404;2024-02-21T09:32:34;13.30;64.20
7900;DHT22;3995;50.856;4.404;2024-02-21T09:35:03;13.30;64.20
7900;DHT22;3995;50.856;4.404;2024-02-21T09:37:31;13.30;64.10
7900;DHT22;3995;50.856;4.404;2024-02-21T09:39:59;13.40;64.20
7900;DHT22;3995;50.856;4.404;2024-02-21T09:42:36;13.30;64.10
7900;DHT22;3995;50.856;4.404;2024-02-21T09:45:08;13.40;64.10
7900;DHT22;3995;50.856;4.404;2024-02-21T09:47:44;13.40;64.20
7900;DHT22;3995;50.856;4.404;2024-02-21T09:50:19;13.40;64.30
7900;DHT22;3995;50.856;4.404;2024-02-21T09:52:48;13.40;64.40
7900;DHT22;3995;50.856;4.404;2024-02-21T09:55:17;13.50;64.40
7900;DHT22;3995;50.856;4.404;2024-02-21T09:57:45;13.50;64.30
7900;DHT22;3995;50.856;4.404;2024-02-21T10:00:13;13.50;64.10
7900;DHT22;3995;50.856;4.404;2024-02-21T10:02:47;13.50;64.00
7900;DHT22;3995;50.856;4.404;2024-02-21T10:05:15;13.50;64.00
7900;DHT22;3995;50.856;4.404;2024-02-21T10:07:44;13.50;64.00
7900;DHT22;3995;50.856;4.404;2024-02-21T10:10:12;13.50;63.90
7900;DHT22;3995;50.856;4.404;2024-02-21T10:12:48;13.50;64.00
7900;DHT22;3995;50.856;4.404;2024-02-21T10:15:20;13.60;63.90
7900;DHT22;3995;50.856;4.404;2024-02-21T10:17:49;13.50;63.80
7900;DHT22;3995;50.856;4.404;2024-02-21T10:20:17;13.60;63.80
7900;DHT22;3995;50.856;4.404;2024-02-21T10:22:46;13.60;63.80
7900;DHT22;3995;50.856;4.404;2024-02-21T10:25:13;13.60;63.70
7900;DHT22;3995;50.856;4.404;2024-02-21T10:27:41;13.60;63.70
7900;DHT22;3995;50.856;4.404;2024-02-21T10:30:14;13.60;63.50
7900;DHT22;3995;50.856;4.404;2024-02-21T10:32:50;13.60;63.40
7900;DHT22;3995;50.856;4.404;2024-02-21T10:35:26;13.60;63.40
7900;DHT22;3995;50.856;4.404;2024-02-21T10:37:55;13.60;63.50
7900;DHT22;3995;50.856;4.404;2024-02-21T10:40:24;13.60;63.60
7900;DHT22;3995;50.856;4.404;2024-02-21T10:42:57;13.70;63.60
7900;DHT22;3995;50.856;4.404;2024-02-21T10:45:30;13.70;63.50
7900;DHT22;3995;50.856;4.404;2024-02-21T10:48:08;13.70;63.40
7900;DHT22;3995;50.856;4.404;2024-02-21T10:50:47;13.70;63.30
7900;DHT22;3995;50.856;4.404;2024-02-21T10:53:28;13.70;63.30
7900;DHT22;3995;50.856;4.404;2024-02-21T10:56:02;13.70;63.20
7900;DHT22;3995;50.856;4.404;2024-02-21T10:58:34;13.70;63.10
7900;DHT22;3995;50.856;4.404;2024-02-21T11:01:03;13.70;63.10
7900;DHT22;3995;50.856;4.404;2024-02-21T11:03:30;13.70;63.10
7900;DHT22;3995;50.856;4.404;2024-02-21T11:05:59;13.70;63.10
7900;DHT22;3995;50.856;4.404;2024-02-21T11:08:28;13.70;63.00
7900;DHT22;3995;50.856;4.404;2024-02-21T11:10:57;13.70;62.80
7900;DHT22;3995;50.856;4.404;2024-02-21T11:13:30;13.70;62.70
7900;DHT22;3995;50.856;4.404;2024-02-21T11:16:07;13.80;62.60
7900;DHT22;3995;50.856;4.404;2024-02-21T11:18:35;13.80;62.50
7900;DHT22;3995;50.856;4.404;2024-02-21T11:21:02;13.80;62.70
7900;DHT22;3995;50.856;4.404;2024-02-21T11:23:32;13.80;62.50
7900;DHT22;3995;50.856;4.404;2024-02-21T11:26:06;13.80;62.40
7900;DHT22;3995;50.856;4.404;2024-02-21T11:28:34;13.80;62.30
7900;DHT22;3995;50.856;4.404;2024-02-21T11:31:07;13.80;62.30
7900;DHT22;3995;50.856;4.404;2024-02-21T11:33:35;13.80;62.20
7900;DHT22;3995;50.856;4.404;2024-02-21T11:36:03;13.80;62.30
7900;DHT22;3995;50.856;4.404;2024-02-21T11:38:32;13.80;62.40
7900;DHT22;3995;50.856;4.404;2024-02-21T11:40:59;13.80;62.40
7900;DHT22;3995;50.856;4.404;2024-02-21T11:43:27;13.80;62.40
7900;DHT22;3995;50.856;4.404;2024-02-21T11:46:00;13.80;62.50
7900;DHT22;3995;50.856;4.404;2024-02-21T11:48:29;13.80;62.40
7900;DHT22;3995;50.856;4.404;2024-02-21T11:50:57;13.80;62.30
7900;DHT22;3995;50.856;4.404;2024-02-21T11:53:26;13.80;62.20
7900;DHT22;3995;50.856;4.404;2024-02-21T11:55:58;13.80;62.20
7900;DHT22;3995;50.856;4.404;2024-02-21T11:58:25;13.80;62.10
7900;DHT22;3995;50.856;4.404;2024-02-21T12:00:52;13.80;62.10
7900;DHT22;3995;50.856;4.404;2024-02-21T12:03:20;13.90;62.10
7900;DHT22;3995;50.856;4.404;2024-02-21T12:05:47;13.90;62.10
7900;DHT22;3995;50.856;4.404;2024-02-21T12:08:15;13.80;62.10
7900;DHT22;3995;50.856;4.404;2024-02-21T12:10:43;13.90;62.20
7900;DHT22;3995;50.856;4.404;2024-02-21T12:13:22;13.90;62.20
7900;DHT22;3995;50.856;4.404;2024-02-21T12:15:50;13.90;62.20
7900;DHT22;3995;50.856;4.404;2024-02-21T12:18:18;13.90;62.20
7900;DHT22;3995;50.856;4.404;2024-02-21T12:20:48;13.90;62.20
7900;DHT22;3995;50.856;4.404;2024-02-21T12:23:18;13.90;62.00
7900;DHT22;3995;50.856;4.404;2024-02-21T12:25:45;13.90;62.00
7900;DHT22;3995;50.856;4.404;2024-02-21T12:28:13;13.90;62.00
7900;DHT22;3995;50.856;4.404;2024-02-21T12:30:45;13.80;62.10
7900;DHT22;3995;50.856;4.404;2024-02-21T12:33:12;13.90;62.20
7900;DHT22;3995;50.856;4.404;2024-02-21T12:35:40;13.80;62.20
7900;DHT22;3995;50.856;4.404;2024-02-21T12:38:07;13.80;62.20
7900;DHT22;3995;50.856;4.404;2024-02-21T12:40:37;13.80;62.20
7900;DHT22;3995;50.856;4.404;2024-02-21T12:43:04;13.80;62.30
7900;DHT22;3995;50.856;4.404;2024-02-21T12:45:31;13.80;62.20
7900;DHT22;3995;50.856;4.404;2024-02-21T12:48:02;13.80;62.20
7900;DHT22;3995;50.856;4.404;2024-02-21T12:50:30;13.80;62.40
7900;DHT22;3995;50.856;4.404;2024-02-21T12:52:58;13.80;62.50
7900;DHT22;3995;50.856;4.404;2024-02-21T12:55:25;13.90;62.50
7900;DHT22;3995;50.856;4.404;2024-02-21T12:57:53;13.90;62.50
7900;DHT22;3995;50.856;4.404;2024-02-21T13:00:20;13.90;62.40
7900;DHT22;3995;50.856;4.404;2024-02-21T13:02:48;13.90;62.40
7900;DHT22;3995;50.856;4.404;2024-02-21T13:05:18;13.90;62.40
7900;DHT22;3995;50.856;4.404;2024-02-21T13:07:45;13.90;62.40
7900;DHT22;3995;50.856;4.404;2024-02-21T13:10:14;13.90;62.40
7900;DHT22;3995;50.856;4.404;2024-02-21T13:12:41;13.90;62.40
7900;DHT22;3995;50.856;4.404;2024-02-21T13:15:09;13.90;62.40
7900;DHT22;3995;50.856;4.404;2024-02-21T13:17:37;13.90;62.40
7900;DHT22;3995;50.856;4.404;2024-02-21T13:20:06;13.90;62.40
7900;DHT22;3995;50.856;4.404;2024-02-21T13:22:35;13.90;62.40
7900;DHT22;3995;50.856;4.404;2024-02-21T13:25:03;13.90;62.50
7900;DHT22;3995;50.856;4.404;2024-02-21T13:27:30;14.00;62.70
7900;DHT22;3995;50.856;4.404;2024-02-21T13:29:58;14.00;62.60
7900;DHT22;3995;50.856;4.404;2024-02-21T13:32:26;13.90;62.50
7900;DHT22;3995;50.856;4.404;2024-02-21T13:34:53;14.00;62.50
7900;DHT22;3995;50.856;4.404;2024-02-21T13:37:21;14.00;62.60
7900;DHT22;3995;50.856;4.404;2024-02-21T13:39:50;14.00;62.60
7900;DHT22;3995;50.856;4.404;2024-02-21T13:42:17;14.00;62.50
7900;DHT22;3995;50.856;4.404;2024-02-21T13:44:45;14.00;62.60
7900;DHT22;3995;50.856;4.404;2024-02-21T13:47:14;14.00;62.70
7900;DHT22;3995;50.856;4.404;2024-02-21T13:49:42;13.90;62.90
7900;DHT22;3995;50.856;4.404;2024-02-21T13:52:09;13.90;63.40
7900;DHT22;3995;50.856;4.404;2024-02-21T13:54:37;13.90;63.60
7900;DHT22;3995;50.856;4.404;2024-02-21T13:57:06;13.90;63.80
7900;DHT22;3995;50.856;4.404;2024-02-21T13:59:34;13.90;64.10
7900;DHT22;3995;50.856;4.404;2024-02-21T14:02:02;13.90;64.20
7900;DHT22;3995;50.856;4.404;2024-02-21T14:04:29;13.90;64.40
7900;DHT22;3995;50.856;4.404;2024-02-21T14:06:57;13.90;64.60
7900;DHT22;3995;50.856;4.404;2024-02-21T14:09:25;13.90;64.80
7900;DHT22;3995;50.856;4.404;2024-02-21T14:11:54;13.90;64.80
7900;DHT22;3995;50.856;4.404;2024-02-21T14:14:23;13.90;65.00
7900;DHT22;3995;50.856;4.404;2024-02-21T14:16:50;13.90;65.10
7900;DHT22;3995;50.856;4.404;2024-02-21T14:19:18;13.90;65.20
7900;DHT22;3995;50.856;4.404;2024-02-21T14:21:45;13.90;65.30
7900;DHT22;3995;50.856;4.404;2024-02-21T14:24:13;13.90;65.40
7900;DHT22;3995;50.856;4.404;2024-02-21T14:26:40;13.90;65.50
7900;DHT22;3995;50.856;4.404;2024-02-21T14:29:08;13.90;65.70
7900;DHT22;3995;50.856;4.404;2024-02-21T14:31:37;13.90;65.70
7900;DHT22;3995;50.856;4.404;2024-02-21T14:34:04;13.80;65.80
7900;DHT22;3995;50.856;4.404;2024-02-21T14:36:33;13.80;66.10
7900;DHT22;3995;50.856;4.404;2024-02-21T14:39:00;13.80;66.30
7900;DHT22;3995;50.856;4.404;2024-02-21T14:41:28;13.80;66.50
7900;DHT22;3995;50.856;4.404;2024-02-21T14:43:56;13.70;66.40
7900;DHT22;3995;50.856;4.404;2024-02-21T14:46:26;13.70;66.40
7900;DHT22;3995;50.856;4.404;2024-02-21T14:48:56;13.70;66.50
7900;DHT22;3995;50.856;4.404;2024-02-21T14:51:23;13.60;66.50
7900;DHT22;3995;50.856;4.404;2024-02-21T14:53:50;13.60;66.70
7900;DHT22;3995;50.856;4.404;2024-02-21T14:56:18;13.60;67.00
7900;DHT22;3995;50.856;4.404;2024-02-21T14:58:45;13.50;67.10
7900;DHT22;3995;50.856;4.404;2024-02-21T15:01:14;13.50;67.10
7900;DHT22;3995;50.856;4.404;2024-02-21T15:03:42;13.50;67.20
7900;DHT22;3995;50.856;4.404;2024-02-21T15:06:11;13.50;67.40
7900;DHT22;3995;50.856;4.404;2024-02-21T15:08:38;13.50;67.60
7900;DHT22;3995;50.856;4.404;2024-02-21T15:11:06;13.40;67.50
7900;DHT22;3995;50.856;4.404;2024-02-21T15:13:33;13.40;67.80
7900;DHT22;3995;50.856;4.404;2024-02-21T15:16:00;13.40;67.70
7900;DHT22;3995;50.856;4.404;2024-02-21T15:18:28;13.40;67.70
7900;DHT22;3995;50.856;4.404;2024-02-21T15:20:58;13.40;67.70
7900;DHT22;3995;50.856;4.404;2024-02-21T15:23:28;13.40;67.90
7900;DHT22;3995;50.856;4.404;2024-02-21T15:25:55;13.40;67.90
7900;DHT22;3995;50.856;4.404;2024-02-21T15:28:23;13.30;68.00
7900;DHT22;3995;50.856;4.404;2024-02-21T15:30:50;13.30;68.20
7900;DHT22;3995;50.856;4.404;2024-02-21T15:33:17;13.30;68.30
7900;DHT22;3995;50.856;4.404;2024-02-21T15:35:45;13.30;68.40
7900;DHT22;3995;50.856;4.404;2024-02-21T15:38:13;13.30;68.40
7900;DHT22;3995;50.856;4.404;2024-02-21T15:40:42;13.30;68.60
7900;DHT22;3995;50.856;4.404;2024-02-21T15:43:09;13.30;68.80
7900;DHT22;3995;50.856;4.404;2024-02-21T15:45:37;13.30;69.00
7900;DHT22;3995;50.856;4.404;2024-02-21T15:48:06;13.30;69.00
7900;DHT22;3995;50.856;4.404;2024-02-21T15:50:33;13.30;69.10
7900;DHT22;3995;50.856;4.404;2024-02-21T15:53:01;13.30;69.20
7900;DHT22;3995;50.856;4.404;2024-02-21T15:55:28;13.30;69.20
7900;DHT22;3995;50.856;4.404;2024-02-21T15:57:58;13.30;69.20
7900;DHT22;3995;50.856;4.404;2024-02-21T16:00:25;13.30;69.30
7900;DHT22;3995;50.856;4.404;2024-02-21T16:02:52;13.30;69.30
7900;DHT22;3995;50.856;4.404;2024-02-21T16:05:19;13.30;69.40
7900;DHT22;3995;50.856;4.404;2024-02-21T16:07:47;13.30;69.60